Map

Track Data

SID SEASON NUMBER BASIN SUBBASIN NAME ISO_TIME NATURE LAT LON WMO_WIND WMO_PRES WMO_AGENCY TRACK_TYPE DIST2LAND LANDFALL IFLAG USA_AGENCY USA_ATCF_ID USA_LAT USA_LON USA_RECORD USA_STATUS USA_WIND USA_PRES USA_SSHS USA_R34_NE USA_R34_SE USA_R34_SW USA_R34_NW USA_R50_NE USA_R50_SE USA_R50_SW USA_R50_NW USA_R64_NE USA_R64_SE USA_R64_SW USA_R64_NW USA_POCI USA_ROCI USA_RMW USA_EYE TOKYO_LAT TOKYO_LON TOKYO_GRADE TOKYO_WIND TOKYO_PRES TOKYO_R50_DIR TOKYO_R50_LONG TOKYO_R50_SHORT TOKYO_R30_DIR TOKYO_R30_LONG TOKYO_R30_SHORT TOKYO_LAND CMA_LAT CMA_LON CMA_CAT CMA_WIND CMA_PRES HKO_LAT HKO_LON HKO_CAT HKO_WIND HKO_PRES NEWDELHI_LAT NEWDELHI_LON NEWDELHI_GRADE NEWDELHI_WIND NEWDELHI_PRES NEWDELHI_CI NEWDELHI_DP NEWDELHI_POCI REUNION_LAT REUNION_LON REUNION_TYPE REUNION_WIND REUNION_PRES REUNION_TNUM REUNION_CI REUNION_RMW REUNION_R34_NE REUNION_R34_SE REUNION_R34_SW REUNION_R34_NW REUNION_R50_NE REUNION_R50_SE REUNION_R50_SW REUNION_R50_NW REUNION_R64_NE REUNION_R64_SE REUNION_R64_SW REUNION_R64_NW BOM_LAT BOM_LON BOM_TYPE BOM_WIND BOM_PRES BOM_TNUM BOM_CI BOM_RMW BOM_R34_NE BOM_R34_SE BOM_R34_SW BOM_R34_NW BOM_R50_NE BOM_R50_SE BOM_R50_SW BOM_R50_NW BOM_R64_NE BOM_R64_SE BOM_R64_SW BOM_R64_NW BOM_ROCI BOM_POCI BOM_EYE BOM_POS_METHOD BOM_PRES_METHOD NADI_LAT NADI_LON NADI_CAT NADI_WIND NADI_PRES WELLINGTON_LAT WELLINGTON_LON WELLINGTON_WIND WELLINGTON_PRES DS824_LAT DS824_LON DS824_STAGE DS824_WIND DS824_PRES TD9636_LAT TD9636_LON TD9636_STAGE TD9636_WIND TD9636_PRES TD9635_LAT TD9635_LON TD9635_WIND TD9635_PRES TD9635_ROCI NEUMANN_LAT NEUMANN_LON NEUMANN_CLASS NEUMANN_WIND NEUMANN_PRES MLC_LAT MLC_LON MLC_CLASS MLC_WIND MLC_PRES USA_GUST BOM_GUST BOM_GUST_PER REUNION_GUST REUNION_GUST_PER USA_SEAHGT USA_SEARAD_NE USA_SEARAD_SE USA_SEARAD_SW USA_SEARAD_NW STORM_SPEED STORM_DIR
1987065S11164 1987 24 SP MM YALI 1987-03-05 12:00:00 TS -10.9000 164.000 main 186 186 O_________O_O_ jtwc_sh SH221987 -10.9000 164.000 25 -1 -10.9000 164.000 1 25 -10.9000 164.000 TC 25 6 135
1987065S11164 1987 24 SP MM YALI 1987-03-05 15:00:00 TS -11.0987 164.205 main 210 210 P_________P_P_ SH221987 -11.1050 164.195 25 -1 -11.0861 164.225 1 25 -11.1050 164.195 TC 25 6 134
1987065S11164 1987 24 SP MM YALI 1987-03-05 18:00:00 TS -11.2926 164.413 main 236 236 O_________P_O_ jtwc_sh SH221987 -11.3000 164.400 25 -1 -11.2777 164.440 1 25 -11.3000 164.400 TC 25 6 133
1987065S11164 1987 24 SP MM YALI 1987-03-05 21:00:00 TS -11.4835 164.622 main 263 263 P_________P_P_ SH221987 -11.4850 164.615 25 -1 -11.4804 164.635 1 25 -11.4850 164.615 TC 25 6 137
1987065S11164 1987 24 SP MM YALI 1987-03-06 00:00:00 TS -11.7000 164.800 main 290 290 O_________O_O_ jtwc_sh SH221987 -11.7000 164.800 25 -1 -11.7000 164.800 1 25 -11.7000 164.800 TC 25 6 149
1987065S11164 1987 24 SP MM YALI 1987-03-06 03:00:00 TS -11.9799 164.924 main 313 313 P_________P_P_ SH221987 -12.0000 164.923 25 -1 -11.9396 164.927 1 25 -12.0000 164.923 TC 25 6 160
1987065S11164 1987 24 SP MM YALI 1987-03-06 06:00:00 TS -12.2641 165.006 main 319 294 O_________P_O_ jtwc_sh SH221987 -12.3000 165.000 25 -1 -12.1924 165.018 1 25 -12.3000 165.000 TC 25 5 164
1987065S11164 1987 24 SP MM YALI 1987-03-06 09:00:00 TS -12.4880 165.068 main 294 276 P_________P_P_ SH221987 -12.5075 165.065 25 -1 -12.4490 165.074 1 25 -12.5075 165.065 TC 25 4 169
1987065S11164 1987 24 SP MM YALI 1987-03-06 12:00:00 TS -12.7000 165.100 main 276 258 O_________O_O_ jtwc_sh SH221987 -12.7000 165.100 25 -1 -12.7000 165.100 1 25 -12.7000 165.100 TC 25 5 176
1987065S11164 1987 24 SP MM YALI 1987-03-06 15:00:00 TS -12.9468 165.113 main 258 233 P_________P_P_ SH221987 -12.9500 165.115 25 -1 -12.9403 165.108 1 25 -12.9500 165.115 TC 25 5 181
1987065S11164 1987 24 SP MM YALI 1987-03-06 18:00:00 TS -13.1908 165.096 main 233 217 O_________P_O_ jtwc_sh SH221987 -13.2000 165.100 25 -1 -13.1725 165.088 1 25 -13.2000 165.100 TC 25 5 187
1987065S11164 1987 24 SP MM YALI 1987-03-06 21:00:00 TS -13.4078 165.055 main 217 210 P_________P_P_ SH221987 -13.4150 165.058 25 -1 -13.3934 165.049 1 25 -13.4150 165.058 TC 25 4 193
1987065S11164 1987 24 SP MM YALI 1987-03-07 00:00:00 TS -13.6000 165.000 main 210 196 O_________O_O_ jtwc_sh SH221987 -13.6000 165.000 25 -1 -13.6000 165.000 1 25 -13.6000 165.000 TC 25 4 196
1987065S11164 1987 24 SP MM YALI 1987-03-07 03:00:00 TS -13.7591 164.954 main 196 196 P_________P_P_ SH221987 -13.7500 164.950 25 -1 -13.7772 164.961 1 25 -13.7500 164.950 TC 25 3 196
1987065S11164 1987 24 SP MM YALI 1987-03-07 06:00:00 TS -13.9142 164.905 main 199 189 O_________P_O_ jtwc_sh SH221987 -13.9000 164.900 25 -1 -13.9425 164.915 1 25 -13.9000 164.900 TC 25 4 197
1987065S11164 1987 24 SP MM YALI 1987-03-07 09:00:00 TS -14.0939 164.854 main 189 189 P_________P_P_ SH221987 -14.0850 164.850 25 -1 -14.1116 164.861 1 25 -14.0850 164.850 TC 25 3 195
1987065S11164 1987 24 SP MM YALI 1987-03-07 12:00:00 TS -14.2385 164.815 30 997 wellington main 195 188 O_______O_O_O_ jtwc_sh SH221987 -14.3000 164.800 25 -1 -13.5000 165.000 30 997 -14.3000 164.800 1 25 -14.3000 164.800 TC 25 3 190
1987065S11164 1987 24 SP MM YALI 1987-03-07 15:00:00 TS -14.4308 164.794 main 188 184 P_______P_P_P_ SH221987 -14.5425 164.757 25 -1 -13.7726 165.048 30 997 -14.5365 164.740 1 26 -14.5425 164.757 TC 25 4 184
1987065S11164 1987 24 SP MM YALI 1987-03-07 18:00:00 TS -14.6580 164.773 30 997 wellington main 183 182 O_______O_P_O_ jtwc_sh SH221987 -14.8000 164.700 25 -1 -14.1000 165.100 30 997 -14.7925 164.672 1 27 -14.8000 164.700 TC 25 5 187
1987065S11164 1987 24 SP MM YALI 1987-03-07 21:00:00 TS -14.9217 164.739 main 193 193 P_______P_P_P_ SH221987 -15.0575 164.615 27 -1 -14.5198 165.132 30 997 -15.0522 164.593 1 28 -15.0575 164.615 TC 27 6 194
1987065S11164 1987 24 SP MM YALI 1987-03-08 00:00:00 TS -15.2250 164.625 30 997 wellington main 209 209 O_______O_O_O_ jtwc_sh SH221987 -15.3000 164.500 30 -1 -15.0000 165.000 30 997 -15.3000 164.500 1 30 -15.3000 164.500 TC 30 7 209
1987065S11164 1987 24 SP MM YALI 1987-03-08 03:00:00 TS -15.5121 164.398 main 236 236 P_______P_P_P_ SH221987 -15.5075 164.350 30 -1 -15.5230 164.516 30 997 -15.5104 164.377 1 31 -15.5075 164.350 TC 30 7 219
1987065S11164 1987 24 SP MM YALI 1987-03-08 06:00:00 TS -15.7769 164.161 30 997 wellington main 261 261 O_______O_P_O_ jtwc_sh SH221987 -15.7000 164.200 30 -1 -16.0000 164.000 30 997 -15.7076 164.243 1 32 -15.7000 164.200 TC 30 6 216
1987065S11164 1987 24 SP MM YALI 1987-03-08 09:00:00 TS -16.0096 164.016 main 286 286 P_______P_P_P_ SH221987 -15.8925 164.085 32 -1 -16.3523 163.782 32 996 -15.9010 164.112 1 33 -15.8925 164.085 TC 32 5 207
1987065S11164 1987 24 SP MM YALI 1987-03-08 12:00:00 TS -16.2250 163.925 35 995 wellington main 302 302 O_______O_O_O_ jtwc_sh SH221987 -16.1000 164.000 35 0 -16.6000 163.700 35 995 -16.1000 164.000 2 35 -16.1000 164.000 TC 35 5 199
1987065S11164 1987 24 SP MM YALI 1987-03-08 15:00:00 TS -16.4518 163.862 main 313 313 P_______P_P_P_ SH221987 -16.3500 163.942 37 0 -16.7725 163.635 40 991 -16.3348 163.929 2 38 -16.3500 163.942 TC 37 5 193
1987065S11164 1987 24 SP MM YALI 1987-03-08 18:00:00 TS -16.6685 163.820 45 987 wellington main 332 332 O_______O_P_O_ jtwc_sh SH221987 -16.6000 163.900 40 0 -16.9000 163.600 45 987 -16.5738 163.879 2 42 -16.6000 163.900 TC 40 4 192
1987065S11164 1987 24 SP MM YALI 1987-03-08 21:00:00 TS -16.8702 163.771 main 343 343 P_______P_P_P_ SH221987 -16.8150 163.850 45 0 -17.0500 163.543 50 983 -16.8010 163.840 2 46 -16.8150 163.850 TC 45 4 193
1987065S11164 1987 24 SP MM YALI 1987-03-09 00:00:00 TS -17.0500 163.725 55 980 wellington main 357 338 O_______O_O_O_ jtwc_sh SH221987 -17.0000 163.800 50 0 -17.2000 163.500 55 980 -17.0000 163.800 2 50 -17.0000 163.800 TC 50 3 194
1987065S11164 1987 24 SP MM YALI 1987-03-09 03:00:00 TS -17.2075 163.684 main 338 327 P_______P_P_P_ SH221987 -17.1575 163.750 57 0 -17.3575 163.485 60 975 -17.1573 163.750 2 57 -17.1575 163.750 TC 57 3 192
1987065S11164 1987 24 SP MM YALI 1987-03-09 06:00:00 TS -17.3500 163.650 65 970 wellington main 327 306 O_______O_O_O_ jtwc_sh SH221987 -17.3000 163.700 65 1 -17.5000 163.500 65 970 -17.3000 163.700 3 65 -17.3000 163.700 TC 65 3 191
1987065S11164 1987 24 SP MM YALI 1987-03-09 09:00:00 TS -17.4925 163.619 main 306 295 P_______P_P_P_ SH221987 -17.4500 163.643 65 1 -17.6150 163.550 65 970 -17.4549 163.643 3 65 -17.4500 163.643 TC 65 3 187
1987065S11164 1987 24 SP MM YALI 1987-03-09 12:00:00 TS -17.6250 163.600 65 970 wellington main 295 284 O_______O_O_O_ jtwc_sh SH221987 -17.6000 163.600 65 1 -17.7000 163.600 65 970 -17.6000 163.600 4 65 -17.6000 163.600 TC 65 3 0
1987065S11164 1987 24 SP MM YALI 1987-03-09 15:00:00 TS -17.7499 163.592 main 284 262 P_______P_P_P_ SH221987 -17.7650 163.585 65 1 -17.7500 163.608 62 972 -17.7196 163.592 4 65 -17.7650 163.585 TC 65 2 176
1987065S11164 1987 24 SP MM YALI 1987-03-09 18:00:00 TS -17.8551 163.603 60 975 wellington main 262 262 O_______O_P_O_ jtwc_sh SH221987 -17.9000 163.600 65 1 -17.8000 163.600 60 975 -17.8204 163.612 4 65 -17.9000 163.600 TC 65 2 168
1987065S11164 1987 24 SP MM YALI 1987-03-09 21:00:00 TS -17.9315 163.636 main 262 249 P_______P_P_P_ SH221987 -17.9575 163.650 65 1 -17.9000 163.593 55 980 -17.9111 163.652 4 65 -17.9575 163.650 TC 65 2 156
1987065S11164 1987 24 SP MM YALI 1987-03-10 00:00:00 TS -18.0000 163.675 50 985 wellington main 249 238 O_______O_O_O_ jtwc_sh SH221987 -18.0000 163.700 65 1 -18.0000 163.600 50 985 -18.0000 163.700 4 65 -18.0000 163.700 TC 65 2 163
1987065S11164 1987 24 SP MM YALI 1987-03-10 03:00:00 TS -18.0778 163.687 main 238 227 P_______P_P_P_ SH221987 -18.0925 163.693 65 1 -18.0425 163.635 47 986 -18.0837 163.727 4 63 -18.0925 163.693 TC 65 2 166
1987065S11164 1987 24 SP MM YALI 1987-03-10 06:00:00 TS -18.1675 163.716 45 987 wellington main 227 214 O_______O_P_O_ jtwc_sh SH221987 -18.2000 163.700 65 1 -18.1000 163.700 45 987 -18.1699 163.763 4 62 -18.2000 163.700 TC 65 2 154
1987065S11164 1987 24 SP MM YALI 1987-03-10 09:00:00 TS -18.2690 163.786 main 214 202 P_______P_P_P_ SH221987 -18.2850 163.770 62 0 -18.2350 163.785 42 988 -18.2712 163.817 4 61 -18.2850 163.770 TC 62 3 142
1987065S11164 1987 24 SP MM YALI 1987-03-10 12:00:00 TS -18.4000 163.900 40 990 wellington main 202 178 O_______O_O_O_ jtwc_sh SH221987 -18.4000 163.900 60 0 -18.4000 163.900 40 990 -18.4000 163.900 2 60 -18.4000 163.900 TC 60 4 139
1987065S11164 1987 24 SP MM YALI 1987-03-10 15:00:00 TS -18.5728 164.060 main 178 156 P_______P_P_P_ SH221987 -18.5851 164.100 57 0 -18.5500 164.043 35 993 -18.5711 163.997 2 56 -18.5851 164.100 TC 57 5 140
1987065S11164 1987 24 SP MM YALI 1987-03-10 18:00:00 TS -18.7719 164.233 30 997 wellington main 156 135 O_______O_P_O_ jtwc_sh SH221987 -18.8000 164.300 55 0 -18.7000 164.200 30 997 -18.7698 164.125 2 52 -18.8000 164.300 TC 55 5 145
1987065S11164 1987 24 SP MM YALI 1987-03-10 21:00:00 TS -18.9781 164.358 main 137 119 P_______P_P_P_ SH221987 -19.0074 164.393 50 0 -18.8500 164.352 30 997 -18.9835 164.291 2 48 -19.0074 164.393 TC 50 5 148
1987065S11164 1987 24 SP MM YALI 1987-03-11 00:00:00 TS -19.1846 164.500 30 997 wellington main 119 102 O_______O_O_O_ jtwc_sh SH221987 -19.2000 164.500 45 0 -19.0000 164.500 30 997 -19.2000 164.500 2 45 -19.2000 164.500 TC 45 5 141
1987065S11164 1987 24 SP MM YALI 1987-03-11 03:00:00 TS -19.3718 164.692 main 102 94 P_________P_P_ SH221987 -19.3425 164.713 42 0 -19.4306 164.651 2 42 -19.3425 164.713 TC 42 6 131
1987065S11164 1987 24 SP MM YALI 1987-03-11 06:00:00 TS -19.5522 164.953 main 94 91 O_________P_O_ jtwc_sh SH221987 -19.5000 165.000 40 0 -19.6567 164.860 2 40 -19.5000 165.000 TC 40 7 129
1987065S11164 1987 24 SP MM YALI 1987-03-11 09:00:00 TS -19.7895 165.246 main 91 91 P_________P_P_ SH221987 -19.7570 165.275 37 0 -19.8546 165.189 2 37 -19.7570 165.275 TC 37 8 123
1987065S11164 1987 24 SP MM YALI 1987-03-11 12:00:00 TS -20.0000 165.700 main 103 103 O_________O_O_ jtwc_sh SH221987 -20.0000 165.700 35 0 -20.0000 165.700 2 35 -20.0000 165.700 TC 35 11 108
1987065S11164 1987 24 SP MM YALI 1987-03-11 15:00:00 TS -20.1262 166.365 main 144 144 P_________P_P_ SH221987 -20.1519 166.330 35 0 -20.0747 166.436 2 33 -20.1519 166.330 TC 35 15 96
1987065S11164 1987 24 SP MM YALI 1987-03-11 18:00:00 TS -20.1627 167.252 main 191 191 O_________P_O_ jtwc_sh SH221987 -20.2000 167.200 35 0 -20.0882 167.356 2 32 -20.2000 167.200 TC 35 18 89
1987065S11164 1987 24 SP MM YALI 1987-03-11 21:00:00 TS -20.1087 168.326 main 266 266 P_________P_P_ SH221987 -20.1345 168.291 32 -1 -20.0572 168.398 2 31 -20.1345 168.291 TC 32 21 86
1987065S11164 1987 24 SP MM YALI 1987-03-12 00:00:00 TS -20.0000 169.500 main 357 O_________O_O_ jtwc_sh SH221987 -20.0000 169.500 30 -1 -20.0000 169.500 1 30 -20.0000 169.500 TC 30 22 84

Digital Typhoon Data and Search

About IBTrACS Database

This database is a web-friendly format of International Best Track Archive for Climate Stewardship (IBTrACS), a global best track data archive curated by NOAA dating back to 1842.

Updated: 2021-12-03